createdAt,value
2019-01-22T00:00:44.072Z,39.58
2019-01-22T00:03:11.148Z,41.95
2019-01-22T00:05:38.510Z,42.03
2019-01-22T00:08:05.567Z,41.08
2019-01-22T00:10:34.042Z,39.98
2019-01-22T00:13:01.251Z,40.70
2019-01-22T00:15:29.315Z,42.15
2019-01-22T00:17:56.395Z,43.10
2019-01-22T00:20:23.606Z,46.28
2019-01-22T00:22:50.662Z,40.03
2019-01-22T00:25:19.838Z,36.40
2019-01-22T00:27:47.101Z,36.93
2019-01-22T00:30:15.718Z,34.00
2019-01-22T00:32:43.026Z,34.08
2019-01-22T00:35:10.452Z,36.15
2019-01-22T00:37:37.499Z,37.28
2019-01-22T00:40:05.863Z,38.45
2019-01-22T00:42:37.427Z,37.58
2019-01-22T00:45:05.090Z,37.35
2019-01-22T00:47:32.517Z,40.35
2019-01-22T00:49:59.618Z,39.67
2019-01-22T00:52:26.966Z,41.48
2019-01-22T00:54:54.014Z,40.55
2019-01-22T00:57:21.769Z,39.80
2019-01-22T00:59:49.016Z,38.05
2019-01-22T01:02:16.114Z,42.30
2019-01-22T01:04:44.230Z,35.70
2019-01-22T01:07:11.297Z,37.58
2019-01-22T01:09:39.439Z,36.73
2019-01-22T01:12:06.822Z,33.53
2019-01-22T01:14:34.122Z,35.58
2019-01-22T01:17:01.572Z,32.35
2019-01-22T01:19:28.673Z,32.55
2019-01-22T01:21:55.745Z,33.63
2019-01-22T01:24:23.209Z,34.30
2019-01-22T01:26:50.301Z,34.98
2019-01-22T01:29:17.376Z,34.27
2019-01-22T01:31:44.751Z,36.35
2019-01-22T01:34:12.936Z,35.15
2019-01-22T01:36:41.427Z,34.60
2019-01-22T01:39:08.509Z,34.50
2019-01-22T01:41:35.625Z,40.75
2019-01-22T01:44:02.870Z,36.13
2019-01-22T01:46:30.464Z,34.65
2019-01-22T01:48:57.510Z,36.53
2019-01-22T01:51:24.570Z,35.65
2019-01-22T01:53:51.620Z,35.40
2019-01-22T01:56:18.660Z,37.85
2019-01-22T01:58:45.739Z,39.08
2019-01-22T02:01:14.860Z,40.12
2019-01-22T02:03:42.288Z,37.30
2019-01-22T02:06:09.380Z,39.85
2019-01-22T02:08:36.567Z,43.02
2019-01-22T02:11:03.885Z,35.90
2019-01-22T02:13:36.607Z,38.05
2019-01-22T02:16:50.497Z,39.18
2019-01-22T02:19:37.682Z,36.85
2019-01-22T02:23:14.201Z,42.98
2019-01-22T02:26:16.019Z,41.40
2019-01-22T02:29:23.784Z,41.40
2019-01-22T02:32:44.156Z,37.90
2019-01-22T02:35:27.349Z,36.30
2019-01-22T02:38:45.399Z,40.45
2019-01-22T02:41:33.244Z,40.35
2019-01-22T02:44:45.722Z,51.55
2019-01-22T02:47:42.783Z,43.13
2019-01-22T02:50:48.632Z,39.60
2019-01-22T02:53:39.435Z,41.18
2019-01-22T02:56:56.149Z,38.05
2019-01-22T02:59:56.370Z,37.48
2019-01-22T03:03:00.381Z,35.80
2019-01-22T03:05:58.457Z,37.67
2019-01-22T03:08:59.908Z,37.65
2019-01-22T03:11:53.146Z,35.95
2019-01-22T03:15:04.285Z,35.88
2019-01-22T03:18:04.478Z,38.23
2019-01-22T03:20:56.195Z,38.70
2019-01-22T03:23:56.938Z,39.38
2019-01-22T03:27:13.346Z,36.88
2019-01-22T03:30:04.666Z,36.95
2019-01-22T03:32:46.767Z,38.78
2019-01-22T03:35:48.397Z,36.60
2019-01-22T03:38:45.880Z,34.50
2019-01-22T03:41:43.646Z,33.88
2019-01-22T03:44:47.558Z,36.93
2019-01-22T03:48:05.169Z,33.83
2019-01-22T03:51:23.549Z,34.70
2019-01-22T03:54:22.529Z,46.92
2019-01-22T03:57:29.901Z,36.08
2019-01-22T03:59:57.589Z,35.35
2019-01-22T04:02:27.526Z,32.25
2019-01-22T04:04:54.621Z,34.20
2019-01-22T04:07:22.216Z,33.78
2019-01-22T04:10:05.544Z,34.55
2019-01-22T04:12:32.914Z,35.15
2019-01-22T04:14:59.975Z,37.30
2019-01-22T04:17:27.365Z,38.73
2019-01-22T04:19:55.372Z,35.35
2019-01-22T04:22:34.090Z,37.53
2019-01-22T04:25:11.719Z,40.30
2019-01-22T04:28:34.474Z,38.33
2019-01-22T04:31:31.482Z,39.27
2019-01-22T04:34:31.893Z,35.00
2019-01-22T04:37:56.105Z,38.88
2019-01-22T04:41:04.414Z,39.38
2019-01-22T04:44:07.213Z,41.28
2019-01-22T04:47:00.669Z,43.15
2019-01-22T04:50:01.308Z,43.75
2019-01-22T04:53:14.663Z,43.15
2019-01-22T04:56:19.063Z,43.87
2019-01-22T04:59:37.135Z,44.13
2019-01-22T05:02:58.834Z,44.85
2019-01-22T05:06:05.414Z,44.88
2019-01-22T05:09:26.726Z,39.63
2019-01-22T05:12:31.564Z,40.75
2019-01-22T05:15:41.331Z,39.10
2019-01-22T05:18:32.729Z,36.08
2019-01-22T05:21:42.441Z,37.20
2019-01-22T05:24:46.594Z,34.03
2019-01-22T05:27:55.625Z,36.05
2019-01-22T05:30:49.810Z,39.23
2019-01-22T05:33:54.569Z,35.23
2019-01-22T05:37:09.716Z,36.93
2019-01-22T05:40:03.611Z,36.53
2019-01-22T05:42:51.271Z,35.73
2019-01-22T05:46:06.255Z,35.08
2019-01-22T05:49:06.759Z,35.05
2019-01-22T05:51:58.550Z,36.30
2019-01-22T05:55:03.402Z,36.23
2019-01-22T05:58:13.135Z,38.63
2019-01-22T06:01:25.976Z,35.25
2019-01-22T06:04:34.779Z,43.87
2019-01-22T06:07:30.384Z,41.53
2019-01-22T06:10:15.555Z,38.15
2019-01-22T06:13:18.632Z,33.73
2019-01-22T06:16:23.357Z,32.50
2019-01-22T06:19:26.472Z,34.73
2019-01-22T06:22:32.851Z,35.43
2019-01-22T06:25:41.779Z,32.23
2019-01-22T06:28:37.183Z,30.70
2019-01-22T06:31:43.866Z,30.85
2019-01-22T06:34:49.530Z,33.85
2019-01-22T06:38:08.710Z,32.50
2019-01-22T06:41:09.052Z,31.42
2019-01-22T06:44:12.214Z,30.62
2019-01-22T06:46:53.007Z,30.77
2019-01-22T06:50:00.783Z,29.35
2019-01-22T06:52:53.522Z,29.80
2019-01-22T06:55:55.713Z,30.32
2019-01-22T06:59:26.954Z,33.10
2019-01-22T07:02:18.061Z,32.58
2019-01-22T07:04:52.177Z,31.68
2019-01-22T07:07:57.319Z,32.30
2019-01-22T07:11:04.407Z,32.93
2019-01-22T07:14:08.310Z,32.83
2019-01-22T07:16:53.591Z,35.48
2019-01-22T07:20:07.802Z,35.52
2019-01-22T07:23:03.355Z,31.42
2019-01-22T07:26:14.131Z,31.95
2019-01-22T07:29:26.430Z,34.53
2019-01-22T07:32:05.983Z,35.75
2019-01-22T07:35:01.491Z,33.35
2019-01-22T07:37:52.989Z,37.55
2019-01-22T07:40:57.789Z,42.33
2019-01-22T07:43:51.082Z,38.78
2019-01-22T07:46:55.147Z,40.38
2019-01-22T07:50:19.588Z,39.18
2019-01-22T07:53:52.746Z,40.33
2019-01-22T07:56:54.786Z,40.35
2019-01-22T07:59:48.249Z,40.43
2019-01-22T08:02:43.394Z,39.88
2019-01-22T08:05:36.723Z,40.70
2019-01-22T08:08:38.121Z,38.50
2019-01-22T08:11:46.873Z,36.05
2019-01-22T08:15:07.094Z,38.55
2019-01-22T08:18:13.252Z,38.25
2019-01-22T08:21:04.262Z,38.38
2019-01-22T08:24:07.662Z,36.65
2019-01-22T08:27:12.697Z,36.40
2019-01-22T08:30:04.222Z,38.63
2019-01-22T08:32:47.753Z,38.05
2019-01-22T08:35:51.668Z,38.25
2019-01-22T08:38:57.578Z,38.98
2019-01-22T08:42:10.137Z,40.30
2019-01-22T08:45:17.294Z,41.58
2019-01-22T08:48:17.946Z,43.80
2019-01-22T08:51:48.296Z,43.20
2019-01-22T08:54:46.461Z,43.42
2019-01-22T08:57:47.836Z,44.95
2019-01-22T09:00:58.815Z,39.23
2019-01-22T09:04:11.715Z,43.23
2019-01-22T09:06:56.829Z,45.83
2019-01-22T09:09:53.632Z,44.63
2019-01-22T09:13:02.180Z,48.28
2019-01-22T09:15:59.381Z,46.75
2019-01-22T09:19:08.901Z,43.42
2019-01-22T09:22:33.135Z,44.58
2019-01-22T09:25:14.675Z,47.45
2019-01-22T09:28:08.094Z,48.98
2019-01-22T09:31:01.760Z,47.10
2019-01-22T09:34:09.560Z,47.85
2019-01-22T09:36:58.087Z,50.73
2019-01-22T09:39:25.261Z,48.78
2019-01-22T09:41:52.924Z,47.43
2019-01-22T09:44:19.977Z,46.80
2019-01-22T09:46:48.357Z,48.90
2019-01-22T09:49:16.017Z,46.05
2019-01-22T09:51:45.107Z,46.83
2019-01-22T09:54:12.462Z,47.40
2019-01-22T09:56:39.536Z,47.13
2019-01-22T09:59:08.395Z,44.83
2019-01-22T10:01:36.163Z,46.60
2019-01-22T10:04:03.867Z,43.30
2019-01-22T10:06:31.850Z,43.48
2019-01-22T10:09:00.577Z,44.05
2019-01-22T10:11:28.042Z,47.05
2019-01-22T10:13:55.397Z,44.25
2019-01-22T10:16:23.773Z,46.35
2019-01-22T10:18:51.645Z,45.67
2019-01-22T10:21:19.302Z,46.63
2019-01-22T10:23:47.092Z,47.33
2019-01-22T10:26:16.262Z,46.48
2019-01-22T10:28:43.829Z,49.73
2019-01-22T10:31:10.911Z,46.92
2019-01-22T10:33:38.528Z,46.18
2019-01-22T10:36:10.658Z,45.63
2019-01-22T10:38:38.277Z,47.13
2019-01-22T10:41:06.739Z,46.90
2019-01-22T10:43:36.160Z,48.25
2019-01-22T10:46:03.855Z,56.58
2019-01-22T10:48:30.895Z,54.25
2019-01-22T10:50:57.958Z,51.35
2019-01-22T10:53:25.112Z,49.65
2019-01-22T10:55:52.163Z,48.80
2019-01-22T10:58:19.246Z,48.10
2019-01-22T11:00:46.293Z,47.40
2019-01-22T11:03:16.750Z,48.33
2019-01-22T11:05:44.176Z,50.17
2019-01-22T11:08:12.038Z,46.37
2019-01-22T11:10:39.389Z,45.85
2019-01-22T11:13:06.475Z,49.80
2019-01-22T11:15:33.522Z,46.55
2019-01-22T11:18:01.268Z,42.60
2019-01-22T11:20:28.562Z,43.70
2019-01-22T11:22:56.522Z,42.38
2019-01-22T11:25:25.846Z,42.08
2019-01-22T11:27:52.941Z,43.80
2019-01-22T11:30:22.726Z,39.18
2019-01-22T11:32:51.114Z,43.80
2019-01-22T11:35:19.593Z,41.55
2019-01-22T11:37:48.909Z,39.90
2019-01-22T11:40:19.131Z,38.58
2019-01-22T11:42:46.181Z,41.08
2019-01-22T11:45:13.563Z,39.53
2019-01-22T11:47:40.608Z,40.90
2019-01-22T11:50:11.909Z,40.85
2019-01-22T11:52:39.465Z,40.67
2019-01-22T11:55:06.538Z,40.38
2019-01-22T11:57:33.870Z,40.40
2019-01-22T12:00:00.992Z,38.95
2019-01-22T12:02:31.933Z,41.58
2019-01-22T12:04:57.472Z,40.45
2019-01-22T12:07:24.892Z,40.17
2019-01-22T12:09:52.188Z,35.48
2019-01-22T12:12:19.250Z,37.93
2019-01-22T12:14:46.641Z,35.85
2019-01-22T12:17:14.548Z,34.48
2019-01-22T12:19:42.209Z,36.10
2019-01-22T12:22:11.214Z,35.48
2019-01-22T12:24:39.364Z,33.40
2019-01-22T12:27:06.436Z,32.40
2019-01-22T12:29:35.322Z,31.70
2019-01-22T12:32:02.390Z,32.88
2019-01-22T12:34:29.443Z,32.13
2019-01-22T12:36:58.858Z,32.83
2019-01-22T12:39:26.018Z,33.18
2019-01-22T12:41:53.066Z,29.02
2019-01-22T12:44:20.156Z,29.12
2019-01-22T12:46:47.203Z,32.28
2019-01-22T12:49:15.289Z,29.92
2019-01-22T12:51:42.334Z,29.37
2019-01-22T12:54:11.744Z,27.60
2019-01-22T12:56:38.920Z,28.80
2019-01-22T12:59:06.225Z,28.30
2019-01-22T13:01:33.294Z,26.52
2019-01-22T13:04:02.136Z,25.88
2019-01-22T13:06:29.521Z,24.85
2019-01-22T13:08:58.414Z,24.57
2019-01-22T13:11:25.879Z,24.85
2019-01-22T13:13:55.131Z,28.10
2019-01-22T13:16:23.254Z,25.57
2019-01-22T13:18:50.320Z,25.23
2019-01-22T13:21:18.494Z,25.25
2019-01-22T13:23:45.638Z,25.37
2019-01-22T13:26:13.003Z,25.20
2019-01-22T13:28:41.130Z,25.62
2019-01-22T13:31:08.193Z,24.80
2019-01-22T13:33:35.540Z,23.55
2019-01-22T13:36:04.852Z,24.35
2019-01-22T13:38:33.314Z,22.93
2019-01-22T13:41:00.683Z,22.10
2019-01-22T13:43:28.106Z,23.92
2019-01-22T13:45:55.517Z,22.25
2019-01-22T13:48:23.437Z,22.85
2019-01-22T13:50:50.870Z,21.95
2019-01-22T13:53:17.914Z,22.37
2019-01-22T13:55:46.434Z,22.95
2019-01-22T13:58:13.790Z,22.58
2019-01-22T14:00:42.270Z,22.02
2019-01-22T14:03:09.362Z,23.42
2019-01-22T14:05:36.401Z,22.60
2019-01-22T14:08:04.103Z,21.25
2019-01-22T14:10:31.557Z,22.62
2019-01-22T14:12:59.244Z,22.30
2019-01-22T14:15:35.448Z,23.65
2019-01-22T14:18:02.494Z,22.13
2019-01-22T14:20:29.520Z,23.20
2019-01-22T14:22:56.614Z,25.80
2019-01-22T14:25:24.013Z,23.90
2019-01-22T14:27:51.055Z,24.57
2019-01-22T14:30:25.423Z,23.85
2019-01-22T14:32:52.831Z,24.40
2019-01-22T14:35:19.913Z,24.20
2019-01-22T14:37:47.087Z,23.10
2019-01-22T14:40:14.686Z,22.17
2019-01-22T14:42:41.746Z,22.40
2019-01-22T14:45:10.936Z,24.75
2019-01-22T14:47:39.003Z,21.87
2019-01-22T14:50:14.306Z,23.12
2019-01-22T14:52:41.969Z,24.40
2019-01-22T14:55:09.054Z,23.75
2019-01-22T14:57:36.379Z,24.12
2019-01-22T15:00:07.319Z,23.45
2019-01-22T15:02:34.956Z,23.55
2019-01-22T15:05:05.743Z,24.60
2019-01-22T15:07:32.798Z,24.30
2019-01-22T15:10:00.224Z,23.98
2019-01-22T15:12:30.560Z,24.15
2019-01-22T15:14:58.026Z,26.65
2019-01-22T15:17:33.402Z,26.12
2019-01-22T15:20:00.444Z,26.12
2019-01-22T15:22:27.473Z,24.32
2019-01-22T15:24:54.536Z,24.65
2019-01-22T15:27:22.009Z,25.60
2019-01-22T15:29:49.934Z,24.95
2019-01-22T15:32:17.015Z,26.97
2019-01-22T15:34:44.361Z,24.37
2019-01-22T15:37:12.015Z,26.52
2019-01-22T15:39:39.778Z,23.80
2019-01-22T15:42:07.244Z,25.95
2019-01-22T15:44:34.291Z,26.37
2019-01-22T15:47:01.412Z,27.95
2019-01-22T15:49:28.455Z,26.90
2019-01-22T15:51:55.520Z,25.92
2019-01-22T15:54:24.596Z,28.70
2019-01-22T15:56:52.090Z,27.35
2019-01-22T15:59:19.136Z,28.42
2019-01-22T16:01:46.217Z,27.98
2019-01-22T16:04:13.254Z,27.13
2019-01-22T16:06:42.315Z,27.05
2019-01-22T16:09:10.590Z,29.37
2019-01-22T16:11:37.870Z,30.55
2019-01-22T16:14:04.908Z,26.30
2019-01-22T16:16:32.261Z,29.52
2019-01-22T16:18:59.325Z,31.12
2019-01-22T16:21:29.008Z,28.23
2019-01-22T16:23:56.048Z,30.35
2019-01-22T16:26:23.693Z,27.98
2019-01-22T16:28:51.453Z,28.40
2019-01-22T16:31:18.522Z,34.05
2019-01-22T16:33:45.876Z,30.57
2019-01-22T16:36:13.427Z,30.30
2019-01-22T16:38:40.479Z,29.30
2019-01-22T16:41:08.127Z,28.23
2019-01-22T16:43:35.580Z,27.82
2019-01-22T16:46:02.870Z,27.55
2019-01-22T16:48:30.189Z,26.68
2019-01-22T16:50:58.345Z,28.70
2019-01-22T16:53:25.731Z,27.52
2019-01-22T16:55:52.778Z,25.75
2019-01-22T16:58:19.861Z,28.45
2019-01-22T17:00:46.918Z,26.50
2019-01-22T17:03:14.300Z,28.55
2019-01-22T17:05:43.152Z,26.27
2019-01-22T17:08:10.591Z,25.50
2019-01-22T17:10:37.663Z,27.15
2019-01-22T17:13:05.494Z,26.62
2019-01-22T17:15:32.540Z,27.95
2019-01-22T17:18:00.018Z,32.28
2019-01-22T17:20:30.027Z,27.55
2019-01-22T17:23:01.940Z,27.75
2019-01-22T17:25:28.081Z,28.90
2019-01-22T17:27:55.458Z,27.50
2019-01-22T17:30:23.101Z,29.57
2019-01-22T17:33:22.705Z,27.65
2019-01-22T17:35:50.637Z,26.87
2019-01-22T17:38:19.462Z,30.25
2019-01-22T17:40:48.657Z,28.62
2019-01-22T17:43:16.194Z,27.73
2019-01-22T17:45:43.260Z,26.05
2019-01-22T17:48:10.472Z,25.17
2019-01-22T17:50:43.705Z,28.47
2019-01-22T17:53:12.082Z,23.95
2019-01-22T17:55:39.133Z,25.05
2019-01-22T17:58:07.225Z,25.43
2019-01-22T18:00:36.155Z,24.40
2019-01-22T18:03:04.529Z,25.52
2019-01-22T18:05:31.607Z,26.45
2019-01-22T18:07:58.983Z,26.55
2019-01-22T18:10:26.338Z,26.27
2019-01-22T18:12:53.395Z,24.70
2019-01-22T18:15:21.266Z,25.10
2019-01-22T18:17:50.450Z,25.27
2019-01-22T18:20:20.251Z,23.05
2019-01-22T18:22:47.616Z,26.25
2019-01-22T18:25:15.078Z,25.02
2019-01-22T18:27:43.336Z,24.10
2019-01-22T18:30:13.479Z,23.50
2019-01-22T18:32:40.955Z,24.70
2019-01-22T18:35:11.305Z,24.18
2019-01-22T18:37:38.354Z,22.62
2019-01-22T18:40:07.452Z,24.00
2019-01-22T18:42:35.865Z,23.83
2019-01-22T18:45:02.998Z,24.87
2019-01-22T18:47:31.649Z,25.65
2019-01-22T18:49:58.811Z,25.17
2019-01-22T18:52:26.619Z,25.05
2019-01-22T18:54:54.034Z,24.70
2019-01-22T18:57:27.385Z,25.68
2019-01-22T18:59:52.209Z,24.12
2019-01-22T19:02:20.642Z,23.57
2019-01-22T19:04:47.685Z,23.55
2019-01-22T19:07:15.819Z,23.80
2019-01-22T19:09:42.867Z,24.98
2019-01-22T19:12:09.907Z,23.18
2019-01-22T19:14:37.308Z,23.12
2019-01-22T19:17:04.756Z,21.77
2019-01-22T19:19:31.788Z,22.95
2019-01-22T19:21:58.827Z,22.80
2019-01-22T19:24:25.914Z,21.75
2019-01-22T19:26:52.928Z,24.12
2019-01-22T19:29:20.303Z,21.62
2019-01-22T19:31:47.765Z,23.75
2019-01-22T19:34:14.809Z,22.93
2019-01-22T19:36:42.477Z,20.12
2019-01-22T19:39:09.569Z,20.95
2019-01-22T19:41:36.623Z,20.70
2019-01-22T19:44:04.443Z,20.27
2019-01-22T19:46:31.832Z,20.02
2019-01-22T19:48:59.092Z,22.22
2019-01-22T19:51:26.160Z,20.57
2019-01-22T19:53:53.755Z,19.90
2019-01-22T19:56:20.799Z,20.82
2019-01-22T19:58:47.915Z,20.72
2019-01-22T20:01:15.619Z,19.60
2019-01-22T20:03:42.681Z,22.00
2019-01-22T20:06:10.341Z,20.88
2019-01-22T20:08:37.379Z,19.77
2019-01-22T20:11:05.958Z,21.05
2019-01-22T20:13:33.153Z,20.15
2019-01-22T20:16:01.255Z,19.17
2019-01-22T20:18:28.358Z,21.00
2019-01-22T20:20:55.826Z,17.45
2019-01-22T20:23:24.500Z,19.95
2019-01-22T20:25:51.853Z,19.40
2019-01-22T20:28:18.935Z,18.57
2019-01-22T20:30:50.759Z,19.25
2019-01-22T20:33:18.134Z,19.73
2019-01-22T20:35:45.954Z,20.05
2019-01-22T20:38:13.715Z,19.67
2019-01-22T20:40:42.669Z,19.90
2019-01-22T20:43:09.753Z,20.05
2019-01-22T20:45:37.136Z,21.20
2019-01-22T20:48:07.125Z,20.08
2019-01-22T20:50:34.784Z,22.25
2019-01-22T20:53:02.154Z,23.05
2019-01-22T20:55:29.253Z,19.95
2019-01-22T20:57:57.258Z,18.52
2019-01-22T21:00:24.431Z,20.20
2019-01-22T21:02:52.488Z,21.02
2019-01-22T21:05:21.985Z,19.02
2019-01-22T21:07:49.479Z,20.25
2019-01-22T21:10:28.011Z,20.05
2019-01-22T21:12:55.518Z,18.75
2019-01-22T21:15:22.573Z,20.77
2019-01-22T21:17:50.729Z,19.85
2019-01-22T21:20:19.010Z,21.73
2019-01-22T21:22:46.873Z,21.02
2019-01-22T21:25:15.669Z,21.40
2019-01-22T21:27:44.099Z,18.70
2019-01-22T21:30:26.241Z,21.95
2019-01-22T21:32:53.278Z,21.50
2019-01-22T21:35:20.856Z,20.35
2019-01-22T21:37:48.202Z,23.83
2019-01-22T21:40:17.630Z,21.75
2019-01-22T21:42:44.741Z,21.12
2019-01-22T21:45:13.337Z,24.12
2019-01-22T21:47:40.432Z,22.90
2019-01-22T21:50:10.542Z,22.50
2019-01-22T21:52:37.861Z,22.30
2019-01-22T21:55:08.287Z,22.58
2019-01-22T21:57:35.356Z,22.42
2019-01-22T22:00:06.389Z,22.48
2019-01-22T22:02:33.742Z,22.82
2019-01-22T22:05:01.827Z,23.52
2019-01-22T22:07:30.083Z,23.70
2019-01-22T22:09:58.522Z,22.32
2019-01-22T22:12:25.568Z,25.97
2019-01-22T22:14:53.747Z,23.00
2019-01-22T22:17:21.287Z,22.42
2019-01-22T22:19:48.375Z,23.18
2019-01-22T22:22:15.451Z,24.90
2019-01-22T22:24:42.663Z,24.20
2019-01-22T22:27:09.709Z,23.70
2019-01-22T22:29:37.115Z,22.65
2019-01-22T22:32:04.966Z,24.10
2019-01-22T22:34:34.776Z,25.25
2019-01-22T22:37:02.142Z,27.87
2019-01-22T22:39:29.211Z,26.20
2019-01-22T22:41:56.301Z,24.37
2019-01-22T22:44:23.370Z,26.95
2019-01-22T22:46:56.456Z,25.27
2019-01-22T22:49:23.949Z,25.35
2019-01-22T22:51:51.011Z,26.62
2019-01-22T22:54:18.640Z,25.57
2019-01-22T22:56:45.733Z,27.00
2019-01-22T22:59:13.124Z,27.35
2019-01-22T23:01:41.303Z,27.65
2019-01-22T23:04:08.496Z,25.20
2019-01-22T23:06:36.451Z,28.23
2019-01-22T23:09:09.773Z,27.27
2019-01-22T23:11:37.222Z,30.37
2019-01-22T23:14:04.295Z,28.50
2019-01-22T23:16:31.714Z,28.35
2019-01-22T23:18:58.774Z,28.62
2019-01-22T23:21:26.865Z,29.57
2019-01-22T23:23:53.958Z,28.83
2019-01-22T23:26:21.098Z,27.48
2019-01-22T23:28:48.543Z,30.68
2019-01-22T23:31:15.602Z,27.60
2019-01-22T23:33:42.672Z,29.63
2019-01-22T23:36:09.918Z,28.98
2019-01-22T23:38:38.295Z,29.35
2019-01-22T23:41:05.371Z,30.23
2019-01-22T23:43:32.417Z,28.77
2019-01-22T23:45:59.465Z,32.15
2019-01-22T23:48:26.617Z,30.32
2019-01-22T23:50:53.646Z,29.05
2019-01-22T23:53:20.716Z,31.90
2019-01-22T23:55:50.350Z,31.23
2019-01-22T23:58:17.405Z,27.80
